< < Back
Terminal Aerodrome Forecast


Current Version              Previous Versions:   1  2  3  4  5  6  7  8  9  

Terminal Aerodrome Forecast

307
FTUS42 KCAE 272300
TAFCAE
TAF
KCAE 272339Z 2800/2824 VRB04KT P6SM FEW050 BKN200
     FM280200 05007KT P6SM BKN040
     FM281400 05010G15KT P6SM SCT035 OVC100
     FM282200 06008KT P6SM BKN035 OVC070=



Latest METAR

106
SAUS80 KWBC 280500 CCA
MTRCAE
METAR KCAE 280456Z 07008KT 10SM CLR 07/M01 A3048 RMK AO2 SLP322
T00671011 401330011


USA.gov is the U.S. government's official web portal to all federal, state and local government web resources and services.